sensor_id;sensor_type;location;lat;lon;timestamp;P1;durP1;ratioP1;P2;durP2;ratioP2
21780;SDS011;52576;53.614;9.894;2023-04-03T14:24:56;4.78;;;1.52;;
21780;SDS011;52576;53.614;9.894;2023-04-03T14:27:00;5.55;;;1.50;;
21780;SDS011;52576;53.614;9.894;2023-04-03T14:29:04;3.33;;;1.00;;
21780;SDS011;52576;53.614;9.894;2023-04-03T14:31:08;4.50;;;1.40;;
21780;SDS011;52576;53.614;9.894;2023-04-03T14:33:13;5.57;;;1.63;;
21780;SDS011;52576;53.614;9.894;2023-04-03T14:35:18;3.65;;;1.10;;
21780;SDS011;52576;53.614;9.894;2023-04-03T14:37:22;7.82;;;1.42;;
21780;SDS011;52576;53.614;9.894;2023-04-03T14:39:28;4.20;;;1.52;;
21780;SDS011;52576;53.614;9.894;2023-04-03T14:41:33;4.05;;;1.20;;
21780;SDS011;52576;53.614;9.894;2023-04-03T14:43:36;4.18;;;1.38;;
21780;SDS011;52576;53.614;9.894;2023-04-03T14:45:40;3.85;;;1.30;;
21780;SDS011;52576;53.614;9.894;2023-04-03T14:47:44;5.90;;;1.25;;
21780;SDS011;52576;53.614;9.894;2023-04-03T14:49:51;4.65;;;1.48;;
21780;SDS011;52576;53.614;9.894;2023-04-03T14:51:55;3.05;;;1.38;;
21780;SDS011;52576;53.614;9.894;2023-04-03T14:53:59;3.95;;;1.40;;
21780;SDS011;52576;53.614;9.894;2023-04-03T14:56:04;3.70;;;1.27;;
21780;SDS011;52576;53.614;9.894;2023-04-03T14:58:15;3.33;;;1.33;;
21780;SDS011;52576;53.614;9.894;2023-04-03T15:00:20;4.03;;;1.48;;
21780;SDS011;52576;53.614;9.894;2023-04-03T15:02:26;5.78;;;1.60;;
21780;SDS011;52576;53.614;9.894;2023-04-03T15:04:31;3.88;;;1.45;;
21780;SDS011;52576;53.614;9.894;2023-04-03T15:06:35;3.00;;;1.27;;
21780;SDS011;52576;53.614;9.894;2023-04-03T15:08:38;4.72;;;1.63;;
21780;SDS011;52576;53.614;9.894;2023-04-03T15:10:42;3.15;;;1.45;;
21780;SDS011;52576;53.614;9.894;2023-04-03T15:12:46;6.93;;;1.23;;
21780;SDS011;52576;53.614;9.894;2023-04-03T15:14:52;2.80;;;1.17;;
21780;SDS011;52576;53.614;9.894;2023-04-03T15:17:04;6.07;;;1.70;;
21780;SDS011;52576;53.614;9.894;2023-04-03T15:19:08;3.05;;;1.20;;
21780;SDS011;52576;53.614;9.894;2023-04-03T15:21:12;2.85;;;1.20;;
21780;SDS011;52576;53.614;9.894;2023-04-03T15:25:28;3.80;;;1.40;;
21780;SDS011;52576;53.614;9.894;2023-04-03T15:27:32;3.90;;;1.60;;
21780;SDS011;52576;53.614;9.894;2023-04-03T15:29:36;3.80;;;1.50;;
21780;SDS011;52576;53.614;9.894;2023-04-03T15:31:41;2.58;;;1.33;;
21780;SDS011;52576;53.614;9.894;2023-04-03T15:33:45;4.68;;;1.40;;
21780;SDS011;52576;53.614;9.894;2023-04-03T15:35:49;4.03;;;1.65;;
21780;SDS011;52576;53.614;9.894;2023-04-03T15:37:56;4.53;;;1.40;;
21780;SDS011;52576;53.614;9.894;2023-04-03T15:40:00;3.80;;;1.30;;
21780;SDS011;52576;53.614;9.894;2023-04-03T15:42:03;3.67;;;1.30;;
21780;SDS011;52576;53.614;9.894;2023-04-03T15:44:08;5.88;;;1.40;;
21780;SDS011;52576;53.614;9.894;2023-04-03T15:46:11;4.55;;;1.30;;
21780;SDS011;52576;53.614;9.894;2023-04-03T15:48:17;4.95;;;1.50;;
21780;SDS011;52576;53.614;9.894;2023-04-03T15:50:21;4.53;;;1.45;;
21780;SDS011;52576;53.614;9.894;2023-04-03T15:52:25;3.78;;;1.40;;
21780;SDS011;52576;53.614;9.894;2023-04-03T15:54:29;3.70;;;1.40;;
21780;SDS011;52576;53.614;9.894;2023-04-03T15:56:33;3.42;;;1.42;;
21780;SDS011;52576;53.614;9.894;2023-04-03T15:58:37;4.35;;;1.33;;
21780;SDS011;52576;53.614;9.894;2023-04-03T16:00:40;6.80;;;1.50;;
21780;SDS011;52576;53.614;9.894;2023-04-03T16:02:45;5.90;;;1.40;;
21780;SDS011;52576;53.614;9.894;2023-04-03T16:04:51;4.70;;;1.50;;
21780;SDS011;52576;53.614;9.894;2023-04-03T16:06:54;4.32;;;1.40;;
21780;SDS011;52576;53.614;9.894;2023-04-03T16:08:57;5.40;;;1.30;;
21780;SDS011;52576;53.614;9.894;2023-04-03T16:11:02;7.93;;;1.50;;
21780;SDS011;52576;53.614;9.894;2023-04-03T16:13:06;4.25;;;1.60;;
21780;SDS011;52576;53.614;9.894;2023-04-03T16:15:10;4.00;;;1.45;;
21780;SDS011;52576;53.614;9.894;2023-04-03T16:17:17;4.18;;;1.42;;
21780;SDS011;52576;53.614;9.894;2023-04-03T16:19:22;6.15;;;2.55;;
21780;SDS011;52576;53.614;9.894;2023-04-03T16:21:33;6.93;;;2.15;;
21780;SDS011;52576;53.614;9.894;2023-04-03T16:23:38;5.03;;;1.55;;
21780;SDS011;52576;53.614;9.894;2023-04-03T16:25:42;6.70;;;1.80;;
21780;SDS011;52576;53.614;9.894;2023-04-03T16:27:47;6.20;;;1.70;;
21780;SDS011;52576;53.614;9.894;2023-04-03T16:29:51;3.10;;;1.42;;
21780;SDS011;52576;53.614;9.894;2023-04-03T16:31:55;4.80;;;1.40;;
21780;SDS011;52576;53.614;9.894;2023-04-03T16:34:05;6.47;;;1.63;;
21780;SDS011;52576;53.614;9.894;2023-04-03T16:36:09;5.22;;;1.80;;
21780;SDS011;52576;53.614;9.894;2023-04-03T16:38:14;4.78;;;1.50;;
21780;SDS011;52576;53.614;9.894;2023-04-03T16:40:18;5.72;;;1.70;;
21780;SDS011;52576;53.614;9.894;2023-04-03T16:42:21;6.05;;;1.50;;
21780;SDS011;52576;53.614;9.894;2023-04-03T16:44:26;4.85;;;1.45;;
21780;SDS011;52576;53.614;9.894;2023-04-03T16:46:29;5.35;;;1.40;;
21780;SDS011;52576;53.614;9.894;2023-04-03T16:48:33;5.63;;;1.38;;
21780;SDS011;52576;53.614;9.894;2023-04-03T16:50:36;5.20;;;1.60;;
21780;SDS011;52576;53.614;9.894;2023-04-03T16:52:40;5.15;;;1.48;;
21780;SDS011;52576;53.614;9.894;2023-04-03T16:54:45;6.78;;;2.38;;
21780;SDS011;52576;53.614;9.894;2023-04-03T16:56:49;4.63;;;1.48;;
21780;SDS011;52576;53.614;9.894;2023-04-03T16:58:52;3.55;;;1.75;;
21780;SDS011;52576;53.614;9.894;2023-04-03T17:00:56;7.43;;;1.48;;
21780;SDS011;52576;53.614;9.894;2023-04-03T17:02:59;4.18;;;1.38;;
21780;SDS011;52576;53.614;9.894;2023-04-03T17:05:03;5.32;;;1.63;;
21780;SDS011;52576;53.614;9.894;2023-04-03T17:07:07;6.25;;;1.80;;
21780;SDS011;52576;53.614;9.894;2023-04-03T17:09:11;4.03;;;1.50;;
21780;SDS011;52576;53.614;9.894;2023-04-03T17:11:19;7.63;;;2.00;;
21780;SDS011;52576;53.614;9.894;2023-04-03T17:13:23;4.82;;;1.42;;
21780;SDS011;52576;53.614;9.894;2023-04-03T17:15:33;5.88;;;1.80;;
21780;SDS011;52576;53.614;9.894;2023-04-03T17:17:36;3.70;;;1.73;;
21780;SDS011;52576;53.614;9.894;2023-04-03T17:19:40;6.38;;;1.80;;
21780;SDS011;52576;53.614;9.894;2023-04-03T17:21:45;5.68;;;1.65;;
21780;SDS011;52576;53.614;9.894;2023-04-03T17:23:50;6.05;;;1.80;;
21780;SDS011;52576;53.614;9.894;2023-04-03T17:25:59;4.45;;;1.90;;
21780;SDS011;52576;53.614;9.894;2023-04-03T17:28:04;4.15;;;1.67;;
21780;SDS011;52576;53.614;9.894;2023-04-03T17:30:08;5.22;;;1.55;;
21780;SDS011;52576;53.614;9.894;2023-04-03T17:32:12;5.60;;;1.67;;
21780;SDS011;52576;53.614;9.894;2023-04-03T17:34:15;7.32;;;1.50;;
21780;SDS011;52576;53.614;9.894;2023-04-03T17:36:19;5.47;;;1.70;;
21780;SDS011;52576;53.614;9.894;2023-04-03T17:38:23;5.38;;;2.00;;
21780;SDS011;52576;53.614;9.894;2023-04-03T17:40:26;5.18;;;1.50;;
21780;SDS011;52576;53.614;9.894;2023-04-03T17:42:30;4.15;;;1.50;;
21780;SDS011;52576;53.614;9.894;2023-04-03T17:44:35;6.38;;;1.90;;
21780;SDS011;52576;53.614;9.894;2023-04-03T17:46:39;5.75;;;1.88;;
21780;SDS011;52576;53.614;9.894;2023-04-03T17:48:42;3.58;;;1.45;;
21780;SDS011;52576;53.614;9.894;2023-04-03T17:50:46;5.22;;;1.70;;
21780;SDS011;52576;53.614;9.894;2023-04-03T17:52:50;8.82;;;1.65;;
21780;SDS011;52576;53.614;9.894;2023-04-03T17:54:53;4.85;;;1.70;;
21780;SDS011;52576;53.614;9.894;2023-04-03T17:56:57;6.40;;;2.08;;
21780;SDS011;52576;53.614;9.894;2023-04-03T17:59:00;6.20;;;1.55;;
21780;SDS011;52576;53.614;9.894;2023-04-03T18:01:10;4.25;;;1.60;;
21780;SDS011;52576;53.614;9.894;2023-04-03T18:03:14;6.18;;;1.60;;
21780;SDS011;52576;53.614;9.894;2023-04-03T18:05:18;7.35;;;1.60;;
21780;SDS011;52576;53.614;9.894;2023-04-03T18:07:22;5.78;;;1.70;;
21780;SDS011;52576;53.614;9.894;2023-04-03T18:09:26;5.80;;;1.58;;
21780;SDS011;52576;53.614;9.894;2023-04-03T18:11:33;6.28;;;1.60;;
21780;SDS011;52576;53.614;9.894;2023-04-03T18:13:37;6.93;;;1.77;;
21780;SDS011;52576;53.614;9.894;2023-04-03T18:15:41;3.47;;;1.52;;
21780;SDS011;52576;53.614;9.894;2023-04-03T18:17:48;7.32;;;1.73;;
21780;SDS011;52576;53.614;9.894;2023-04-03T18:19:57;5.63;;;1.52;;
21780;SDS011;52576;53.614;9.894;2023-04-03T18:22:03;8.93;;;1.70;;
21780;SDS011;52576;53.614;9.894;2023-04-03T18:24:11;4.88;;;1.40;;
21780;SDS011;52576;53.614;9.894;2023-04-03T18:26:17;6.65;;;1.90;;
21780;SDS011;52576;53.614;9.894;2023-04-03T18:28:22;8.48;;;1.70;;
21780;SDS011;52576;53.614;9.894;2023-04-03T18:30:27;4.15;;;1.50;;
21780;SDS011;52576;53.614;9.894;2023-04-03T18:32:31;6.63;;;1.83;;
21780;SDS011;52576;53.614;9.894;2023-04-03T18:34:36;8.02;;;1.73;;
21780;SDS011;52576;53.614;9.894;2023-04-03T18:36:39;8.05;;;1.73;;
21780;SDS011;52576;53.614;9.894;2023-04-03T18:38:43;9.15;;;1.60;;
21780;SDS011;52576;53.614;9.894;2023-04-03T18:40:47;6.72;;;1.90;;
21780;SDS011;52576;53.614;9.894;2023-04-03T18:42:51;6.45;;;1.67;;
21780;SDS011;52576;53.614;9.894;2023-04-03T18:44:55;8.73;;;1.83;;
21780;SDS011;52576;53.614;9.894;2023-04-03T18:47:02;7.15;;;1.83;;
21780;SDS011;52576;53.614;9.894;2023-04-03T18:49:06;4.90;;;1.90;;
21780;SDS011;52576;53.614;9.894;2023-04-03T18:51:11;4.57;;;1.88;;
21780;SDS011;52576;53.614;9.894;2023-04-03T18:53:16;5.85;;;1.70;;
21780;SDS011;52576;53.614;9.894;2023-04-03T18:55:20;3.72;;;1.60;;
21780;SDS011;52576;53.614;9.894;2023-04-03T18:57:24;12.35;;;4.13;;
21780;SDS011;52576;53.614;9.894;2023-04-03T18:59:28;15.25;;;5.68;;
21780;SDS011;52576;53.614;9.894;2023-04-03T19:01:32;5.38;;;1.75;;
21780;SDS011;52576;53.614;9.894;2023-04-03T19:03:37;7.82;;;2.33;;
21780;SDS011;52576;53.614;9.894;2023-04-03T19:05:41;8.02;;;1.70;;
21780;SDS011;52576;53.614;9.894;2023-04-03T19:07:46;6.05;;;2.10;;
21780;SDS011;52576;53.614;9.894;2023-04-03T19:09:51;7.85;;;2.00;;
21780;SDS011;52576;53.614;9.894;2023-04-03T19:11:54;6.50;;;2.15;;
21780;SDS011;52576;53.614;9.894;2023-04-03T19:13:58;6.30;;;1.90;;
21780;SDS011;52576;53.614;9.894;2023-04-03T19:16:15;4.05;;;2.05;;
21780;SDS011;52576;53.614;9.894;2023-04-03T19:18:19;5.68;;;1.83;;
21780;SDS011;52576;53.614;9.894;2023-04-03T19:20:22;5.93;;;2.08;;
21780;SDS011;52576;53.614;9.894;2023-04-03T19:22:26;4.75;;;2.08;;
21780;SDS011;52576;53.614;9.894;2023-04-03T19:24:31;3.35;;;1.70;;
21780;SDS011;52576;53.614;9.894;2023-04-03T19:26:34;7.15;;;2.47;;
21780;SDS011;52576;53.614;9.894;2023-04-03T19:28:41;5.95;;;2.15;;
21780;SDS011;52576;53.614;9.894;2023-04-03T19:30:45;6.53;;;2.45;;
21780;SDS011;52576;53.614;9.894;2023-04-03T19:32:49;6.95;;;2.20;;
21780;SDS011;52576;53.614;9.894;2023-04-03T19:34:53;4.05;;;1.75;;
21780;SDS011;52576;53.614;9.894;2023-04-03T19:36:58;4.75;;;1.90;;
21780;SDS011;52576;53.614;9.894;2023-04-03T19:39:03;13.07;;;2.75;;
21780;SDS011;52576;53.614;9.894;2023-04-03T19:41:08;4.47;;;2.15;;
21780;SDS011;52576;53.614;9.894;2023-04-03T19:43:15;7.07;;;2.22;;
21780;SDS011;52576;53.614;9.894;2023-04-03T19:45:19;6.78;;;2.22;;
21780;SDS011;52576;53.614;9.894;2023-04-03T19:47:23;5.70;;;2.28;;
21780;SDS011;52576;53.614;9.894;2023-04-03T19:49:28;10.38;;;2.67;;
21780;SDS011;52576;53.614;9.894;2023-04-03T19:51:33;6.85;;;2.58;;
21780;SDS011;52576;53.614;9.894;2023-04-03T19:53:38;10.23;;;2.50;;
21780;SDS011;52576;53.614;9.894;2023-04-03T19:55:41;6.95;;;2.50;;
21780;SDS011;52576;53.614;9.894;2023-04-03T19:57:49;8.65;;;2.78;;
21780;SDS011;52576;53.614;9.894;2023-04-03T19:59:53;8.60;;;2.38;;
21780;SDS011;52576;53.614;9.894;2023-04-03T20:01:56;5.47;;;2.35;;
21780;SDS011;52576;53.614;9.894;2023-04-03T20:04:00;6.80;;;2.70;;
21780;SDS011;52576;53.614;9.894;2023-04-03T20:06:04;8.27;;;2.65;;
21780;SDS011;52576;53.614;9.894;2023-04-03T20:08:07;7.28;;;2.45;;
21780;SDS011;52576;53.614;9.894;2023-04-03T20:10:11;8.40;;;2.65;;
21780;SDS011;52576;53.614;9.894;2023-04-03T20:12:14;11.52;;;2.90;;
21780;SDS011;52576;53.614;9.894;2023-04-03T20:14:19;9.18;;;2.92;;
21780;SDS011;52576;53.614;9.894;2023-04-03T20:16:22;7.93;;;2.75;;
21780;SDS011;52576;53.614;9.894;2023-04-03T20:18:27;10.88;;;2.50;;
21780;SDS011;52576;53.614;9.894;2023-04-03T20:20:30;5.75;;;2.72;;
21780;SDS011;52576;53.614;9.894;2023-04-03T20:22:35;11.10;;;2.53;;
21780;SDS011;52576;53.614;9.894;2023-04-03T20:24:39;7.97;;;3.08;;
21780;SDS011;52576;53.614;9.894;2023-04-03T20:26:43;8.18;;;2.80;;
21780;SDS011;52576;53.614;9.894;2023-04-03T20:28:48;8.05;;;2.65;;
21780;SDS011;52576;53.614;9.894;2023-04-03T20:30:53;5.30;;;2.33;;
21780;SDS011;52576;53.614;9.894;2023-04-03T20:32:57;8.35;;;2.85;;
21780;SDS011;52576;53.614;9.894;2023-04-03T20:35:00;9.32;;;2.53;;
21780;SDS011;52576;53.614;9.894;2023-04-03T20:37:05;7.55;;;2.97;;
21780;SDS011;52576;53.614;9.894;2023-04-03T20:39:09;7.95;;;2.80;;
21780;SDS011;52576;53.614;9.894;2023-04-03T20:41:12;8.70;;;3.25;;
21780;SDS011;52576;53.614;9.894;2023-04-03T20:43:16;7.10;;;2.85;;
21780;SDS011;52576;53.614;9.894;2023-04-03T20:45:20;7.65;;;2.85;;
21780;SDS011;52576;53.614;9.894;2023-04-03T20:47:25;5.88;;;2.50;;
21780;SDS011;52576;53.614;9.894;2023-04-03T20:49:28;6.63;;;2.40;;
21780;SDS011;52576;53.614;9.894;2023-04-03T20:51:32;9.13;;;2.88;;
21780;SDS011;52576;53.614;9.894;2023-04-03T20:53:35;5.97;;;2.53;;
21780;SDS011;52576;53.614;9.894;2023-04-03T20:55:39;9.63;;;3.95;;
21780;SDS011;52576;53.614;9.894;2023-04-03T20:57:43;10.93;;;2.88;;
21780;SDS011;52576;53.614;9.894;2023-04-03T20:59:55;8.43;;;3.00;;
21780;SDS011;52576;53.614;9.894;2023-04-03T21:01:58;9.48;;;2.92;;
21780;SDS011;52576;53.614;9.894;2023-04-03T21:04:04;6.63;;;2.78;;
21780;SDS011;52576;53.614;9.894;2023-04-03T21:21:16;6.32;;;2.60;;
21780;SDS011;52576;53.614;9.894;2023-04-03T21:23:21;8.48;;;2.60;;
21780;SDS011;52576;53.614;9.894;2023-04-03T21:25:26;6.47;;;2.40;;
21780;SDS011;52576;53.614;9.894;2023-04-03T21:27:29;7.47;;;2.75;;
21780;SDS011;52576;53.614;9.894;2023-04-03T21:29:33;9.68;;;2.80;;
21780;SDS011;52576;53.614;9.894;2023-04-03T21:31:49;6.47;;;2.72;;
21780;SDS011;52576;53.614;9.894;2023-04-03T21:33:54;7.60;;;2.58;;
21780;SDS011;52576;53.614;9.894;2023-04-03T21:35:59;5.47;;;2.20;;
21780;SDS011;52576;53.614;9.894;2023-04-03T21:38:03;5.72;;;2.53;;
21780;SDS011;52576;53.614;9.894;2023-04-03T21:40:07;5.70;;;2.75;;
21780;SDS011;52576;53.614;9.894;2023-04-03T21:42:11;7.13;;;2.20;;
21780;SDS011;52576;53.614;9.894;2023-04-03T21:44:14;5.70;;;2.28;;
21780;SDS011;52576;53.614;9.894;2023-04-03T21:46:17;5.15;;;1.95;;
21780;SDS011;52576;53.614;9.894;2023-04-03T21:48:21;8.48;;;2.25;;
21780;SDS011;52576;53.614;9.894;2023-04-03T21:50:25;6.07;;;2.00;;
21780;SDS011;52576;53.614;9.894;2023-04-03T21:52:29;4.68;;;2.05;;
21780;SDS011;52576;53.614;9.894;2023-04-03T21:54:33;5.00;;;2.10;;
21780;SDS011;52576;53.614;9.894;2023-04-03T21:56:36;7.50;;;2.42;;
21780;SDS011;52576;53.614;9.894;2023-04-03T21:58:40;8.00;;;2.50;;
21780;SDS011;52576;53.614;9.894;2023-04-03T22:00:43;11.80;;;5.32;;
21780;SDS011;52576;53.614;9.894;2023-04-03T22:02:46;9.25;;;2.97;;
21780;SDS011;52576;53.614;9.894;2023-04-03T22:04:55;6.93;;;2.88;;
21780;SDS011;52576;53.614;9.894;2023-04-03T22:06:59;11.55;;;3.20;;
21780;SDS011;52576;53.614;9.894;2023-04-03T22:09:05;7.30;;;2.35;;
21780;SDS011;52576;53.614;9.894;2023-04-03T22:11:10;6.97;;;2.90;;
21780;SDS011;52576;53.614;9.894;2023-04-03T22:13:15;7.40;;;2.65;;
21780;SDS011;52576;53.614;9.894;2023-04-03T22:15:18;5.93;;;2.92;;
21780;SDS011;52576;53.614;9.894;2023-04-03T22:17:23;5.63;;;2.65;;
21780;SDS011;52576;53.614;9.894;2023-04-03T22:19:26;10.05;;;3.15;;
21780;SDS011;52576;53.614;9.894;2023-04-03T22:21:29;7.68;;;2.80;;
21780;SDS011;52576;53.614;9.894;2023-04-03T22:23:34;6.40;;;2.80;;
21780;SDS011;52576;53.614;9.894;2023-04-03T22:25:39;6.82;;;2.75;;
21780;SDS011;52576;53.614;9.894;2023-04-03T22:27:42;7.88;;;2.88;;
21780;SDS011;52576;53.614;9.894;2023-04-03T22:29:46;5.20;;;2.25;;
21780;SDS011;52576;53.614;9.894;2023-04-03T22:31:49;8.93;;;2.60;;
21780;SDS011;52576;53.614;9.894;2023-04-03T22:33:52;10.07;;;3.15;;
21780;SDS011;52576;53.614;9.894;2023-04-03T22:35:56;10.18;;;2.75;;
21780;SDS011;52576;53.614;9.894;2023-04-03T22:38:00;13.63;;;3.38;;
21780;SDS011;52576;53.614;9.894;2023-04-03T22:40:04;9.50;;;2.83;;
21780;SDS011;52576;53.614;9.894;2023-04-03T22:42:09;10.50;;;2.70;;
21780;SDS011;52576;53.614;9.894;2023-04-03T22:44:12;8.52;;;3.13;;
21780;SDS011;52576;53.614;9.894;2023-04-03T22:46:18;6.03;;;2.42;;
21780;SDS011;52576;53.614;9.894;2023-04-03T22:48:22;10.45;;;2.50;;
21780;SDS011;52576;53.614;9.894;2023-04-03T22:50:26;9.13;;;2.90;;
21780;SDS011;52576;53.614;9.894;2023-04-03T22:52:29;7.40;;;2.92;;
21780;SDS011;52576;53.614;9.894;2023-04-03T22:54:33;10.98;;;3.10;;
21780;SDS011;52576;53.614;9.894;2023-04-03T22:56:36;14.73;;;3.10;;
21780;SDS011;52576;53.614;9.894;2023-04-03T22:58:41;9.10;;;3.53;;
21780;SDS011;52576;53.614;9.894;2023-04-03T23:00:45;9.85;;;3.40;;
21780;SDS011;52576;53.614;9.894;2023-04-03T23:02:48;7.75;;;3.53;;
21780;SDS011;52576;53.614;9.894;2023-04-03T23:04:52;8.57;;;3.22;;
21780;SDS011;52576;53.614;9.894;2023-04-03T23:06:55;12.43;;;3.00;;
21780;SDS011;52576;53.614;9.894;2023-04-03T23:09:00;11.93;;;3.22;;
21780;SDS011;52576;53.614;9.894;2023-04-03T23:11:04;9.80;;;3.28;;
21780;SDS011;52576;53.614;9.894;2023-04-03T23:13:10;8.38;;;3.03;;
21780;SDS011;52576;53.614;9.894;2023-04-03T23:15:15;10.65;;;3.70;;
21780;SDS011;52576;53.614;9.894;2023-04-03T23:17:20;9.88;;;3.15;;
21780;SDS011;52576;53.614;9.894;2023-04-03T23:19:23;11.02;;;3.50;;
21780;SDS011;52576;53.614;9.894;2023-04-03T23:21:26;7.30;;;3.20;;
21780;SDS011;52576;53.614;9.894;2023-04-03T23:23:30;12.20;;;3.67;;
21780;SDS011;52576;53.614;9.894;2023-04-03T23:25:33;7.43;;;3.15;;
21780;SDS011;52576;53.614;9.894;2023-04-03T23:27:37;8.82;;;3.25;;
21780;SDS011;52576;53.614;9.894;2023-04-03T23:29:40;8.27;;;3.38;;
21780;SDS011;52576;53.614;9.894;2023-04-03T23:31:45;9.82;;;3.30;;
21780;SDS011;52576;53.614;9.894;2023-04-03T23:33:48;13.20;;;3.50;;
21780;SDS011;52576;53.614;9.894;2023-04-03T23:35:51;9.82;;;3.42;;
21780;SDS011;52576;53.614;9.894;2023-04-03T23:37:55;13.80;;;3.97;;
21780;SDS011;52576;53.614;9.894;2023-04-03T23:39:58;9.18;;;3.95;;
21780;SDS011;52576;53.614;9.894;2023-04-03T23:42:02;9.43;;;3.38;;
21780;SDS011;52576;53.614;9.894;2023-04-03T23:44:09;7.60;;;3.00;;
21780;SDS011;52576;53.614;9.894;2023-04-03T23:46:12;9.20;;;3.30;;
21780;SDS011;52576;53.614;9.894;2023-04-03T23:48:17;9.73;;;3.47;;
21780;SDS011;52576;53.614;9.894;2023-04-03T23:50:21;13.20;;;3.53;;
21780;SDS011;52576;53.614;9.894;2023-04-03T23:52:24;12.25;;;3.70;;
21780;SDS011;52576;53.614;9.894;2023-04-03T23:54:28;9.23;;;3.20;;
21780;SDS011;52576;53.614;9.894;2023-04-03T23:56:32;6.82;;;3.10;;
21780;SDS011;52576;53.614;9.894;2023-04-03T23:58:35;9.32;;;3.35;;
